createdAt,value
2022-12-13T00:01:47.350Z,100.00
2022-12-13T00:04:16.331Z,100.00
2022-12-13T00:06:46.620Z,100.00
2022-12-13T00:09:16.741Z,100.00
2022-12-13T00:11:46.066Z,100.00
2022-12-13T00:14:15.241Z,100.00
2022-12-13T00:16:48.095Z,100.00
2022-12-13T00:19:18.531Z,100.00
2022-12-13T00:21:48.436Z,100.00
2022-12-13T00:24:17.229Z,100.00
2022-12-13T00:26:45.939Z,100.00
2022-12-13T00:29:14.988Z,100.00
2022-12-13T00:31:56.701Z,100.00
2022-12-13T00:34:28.719Z,100.00
2022-12-13T00:37:10.167Z,100.00
2022-12-13T00:39:39.141Z,100.00
2022-12-13T00:42:07.913Z,100.00
2022-12-13T00:44:36.577Z,100.00
2022-12-13T00:47:06.517Z,100.00
2022-12-13T00:49:35.186Z,100.00
2022-12-13T00:52:05.344Z,100.00
2022-12-13T00:54:34.158Z,100.00
2022-12-13T00:57:02.829Z,100.00
2022-12-13T00:59:31.692Z,100.00
2022-12-13T01:02:00.266Z,100.00
2022-12-13T01:04:28.926Z,100.00
2022-12-13T01:06:57.637Z,100.00
2022-12-13T01:09:31.087Z,100.00
2022-12-13T01:12:01.789Z,100.00
2022-12-13T01:14:30.792Z,100.00
2022-12-13T01:16:59.848Z,100.00
2022-12-13T01:19:29.888Z,100.00
2022-12-13T01:22:00.090Z,100.00
2022-12-13T01:24:31.456Z,100.00
2022-12-13T01:27:00.769Z,100.00
2022-12-13T01:29:29.571Z,100.00
2022-12-13T01:31:58.388Z,100.00
2022-12-13T01:34:27.524Z,100.00
2022-12-13T01:36:58.352Z,100.00
2022-12-13T01:39:30.012Z,100.00
2022-12-13T01:42:02.796Z,100.00
2022-12-13T01:45:19.928Z,100.00
2022-12-13T01:47:52.855Z,100.00
2022-12-13T01:50:28.109Z,100.00
2022-12-13T01:53:00.161Z,100.00
2022-12-13T01:55:41.420Z,100.00
2022-12-13T01:58:11.420Z,100.00
2022-12-13T02:00:40.954Z,100.00
2022-12-13T02:03:21.664Z,100.00
2022-12-13T02:06:00.546Z,100.00
2022-12-13T02:08:29.947Z,100.00
2022-12-13T02:11:01.505Z,100.00
2022-12-13T02:13:31.595Z,100.00
2022-12-13T02:16:11.425Z,100.00
2022-12-13T02:19:09.505Z,100.00
2022-12-13T02:21:53.733Z,100.00
2022-12-13T02:24:58.766Z,100.00
2022-12-13T02:28:00.747Z,100.00
2022-12-13T02:30:39.556Z,100.00
2022-12-13T02:33:36.140Z,100.00
2022-12-13T02:36:15.640Z,100.00
2022-12-13T02:38:56.203Z,100.00
2022-12-13T02:41:37.303Z,100.00
2022-12-13T02:44:22.374Z,100.00
2022-12-13T02:46:59.163Z,100.00
2022-12-13T02:49:36.122Z,100.00
2022-12-13T02:52:09.438Z,100.00
2022-12-13T02:54:42.797Z,100.00
2022-12-13T02:57:32.146Z,100.00
2022-12-13T03:00:07.256Z,100.00
2022-12-13T03:02:57.324Z,100.00
2022-12-13T03:05:57.529Z,100.00
2022-12-13T03:08:35.627Z,100.00
2022-12-13T03:11:10.833Z,100.00
2022-12-13T03:13:50.957Z,100.00
2022-12-13T03:16:36.607Z,100.00
2022-12-13T03:19:11.466Z,100.00
2022-12-13T03:21:47.408Z,100.00
2022-12-13T03:24:19.756Z,100.00
2022-12-13T03:26:52.465Z,100.00
2022-12-13T03:29:24.891Z,100.00
2022-12-13T03:31:54.445Z,100.00
2022-12-13T03:34:24.651Z,100.00
2022-12-13T03:36:54.500Z,100.00
2022-12-13T03:39:24.188Z,100.00
2022-12-13T03:41:53.309Z,100.00
2022-12-13T03:44:22.651Z,100.00
2022-12-13T03:46:51.495Z,100.00
2022-12-13T03:49:19.904Z,100.00
2022-12-13T03:51:49.991Z,100.00
2022-12-13T03:54:18.853Z,100.00
2022-12-13T03:57:15.710Z,100.00
2022-12-13T03:59:44.429Z,100.00
2022-12-13T04:02:13.198Z,100.00
2022-12-13T04:04:42.063Z,100.00
2022-12-13T04:07:22.596Z,100.00
2022-12-13T04:09:51.616Z,100.00
2022-12-13T04:12:37.529Z,100.00
2022-12-13T04:15:07.596Z,100.00
2022-12-13T04:17:36.330Z,100.00
2022-12-13T04:20:05.273Z,100.00
2022-12-13T04:22:35.338Z,100.00
2022-12-13T04:25:04.205Z,100.00
2022-12-13T04:27:33.261Z,100.00
2022-12-13T04:30:02.003Z,100.00
2022-12-13T04:32:30.716Z,100.00
2022-12-13T04:35:01.091Z,100.00
2022-12-13T04:37:30.654Z,100.00
2022-12-13T04:40:01.186Z,100.00
2022-12-13T04:42:30.147Z,100.00
2022-12-13T04:44:58.749Z,100.00
2022-12-13T04:47:27.133Z,100.00
2022-12-13T04:49:56.127Z,100.00
2022-12-13T04:52:24.879Z,100.00
2022-12-13T04:54:55.783Z,100.00
2022-12-13T04:57:26.134Z,100.00
2022-12-13T04:59:54.864Z,100.00
2022-12-13T05:02:24.403Z,100.00
2022-12-13T05:04:53.543Z,100.00
2022-12-13T05:07:23.250Z,100.00
2022-12-13T05:09:52.018Z,100.00
2022-12-13T05:12:22.522Z,100.00
2022-12-13T05:14:53.519Z,100.00
2022-12-13T05:17:22.425Z,100.00
2022-12-13T05:19:51.530Z,100.00
2022-12-13T05:22:21.307Z,100.00
2022-12-13T05:24:50.335Z,100.00
2022-12-13T05:27:25.647Z,100.00
2022-12-13T05:30:03.612Z,100.00
2022-12-13T05:32:42.751Z,100.00
2022-12-13T05:35:13.652Z,100.00
2022-12-13T05:37:42.846Z,100.00
2022-12-13T05:40:12.001Z,100.00
2022-12-13T05:42:40.540Z,100.00
2022-12-13T05:45:11.588Z,100.00
2022-12-13T05:47:40.288Z,100.00
2022-12-13T05:50:09.370Z,100.00
2022-12-13T05:52:38.214Z,100.00
2022-12-13T05:55:07.515Z,100.00
2022-12-13T05:57:37.272Z,100.00
2022-12-13T06:00:28.790Z,100.00
2022-12-13T06:03:01.480Z,100.00
2022-12-13T06:05:32.078Z,100.00
2022-12-13T06:08:01.087Z,100.00
2022-12-13T06:10:34.408Z,100.00
2022-12-13T06:13:22.051Z,100.00
2022-12-13T06:16:02.043Z,100.00
2022-12-13T06:18:34.051Z,100.00
2022-12-13T06:21:07.019Z,100.00
2022-12-13T06:23:36.936Z,100.00
2022-12-13T06:26:07.535Z,100.00
2022-12-13T06:28:39.201Z,100.00
2022-12-13T06:31:10.435Z,100.00
2022-12-13T06:33:39.254Z,100.00
2022-12-13T06:36:09.187Z,100.00
2022-12-13T06:38:43.565Z,100.00
2022-12-13T06:41:17.798Z,100.00
2022-12-13T06:43:48.188Z,100.00
2022-12-13T06:46:19.062Z,100.00
2022-12-13T06:48:47.794Z,100.00
2022-12-13T06:51:22.474Z,100.00
2022-12-13T06:53:51.891Z,100.00
2022-12-13T06:56:20.849Z,100.00
2022-12-13T06:58:49.816Z,100.00
2022-12-13T07:01:24.405Z,100.00
2022-12-13T07:03:55.453Z,100.00
2022-12-13T07:06:27.972Z,100.00
2022-12-13T07:09:03.532Z,100.00
2022-12-13T07:11:34.691Z,100.00
2022-12-13T07:14:03.388Z,100.00
2022-12-13T07:16:34.531Z,100.00
2022-12-13T07:19:04.320Z,100.00
2022-12-13T07:21:51.906Z,100.00
2022-12-13T07:24:23.296Z,100.00
2022-12-13T07:26:51.964Z,100.00
2022-12-13T07:29:22.663Z,100.00
2022-12-13T07:31:53.783Z,100.00
2022-12-13T07:34:31.386Z,100.00
2022-12-13T07:37:00.034Z,100.00
2022-12-13T07:39:28.933Z,100.00
2022-12-13T07:41:58.009Z,100.00
2022-12-13T07:44:27.344Z,100.00
2022-12-13T07:47:00.552Z,100.00
2022-12-13T07:49:29.253Z,100.00
2022-12-13T07:51:58.174Z,100.00
2022-12-13T07:54:26.463Z,100.00
2022-12-13T07:56:59.744Z,100.00
2022-12-13T07:59:31.501Z,100.00
2022-12-13T08:02:02.121Z,100.00
2022-12-13T08:04:37.694Z,100.00
2022-12-13T08:07:09.255Z,100.00
2022-12-13T08:09:38.146Z,100.00
2022-12-13T08:12:07.629Z,100.00
2022-12-13T08:14:36.439Z,100.00
2022-12-13T08:17:06.308Z,100.00
2022-12-13T08:19:35.480Z,100.00
2022-12-13T08:22:06.244Z,100.00
2022-12-13T08:24:42.907Z,100.00
2022-12-13T08:27:12.194Z,100.00
2022-12-13T08:29:41.037Z,100.00
2022-12-13T08:32:14.488Z,100.00
2022-12-13T08:34:43.486Z,100.00
2022-12-13T08:37:13.049Z,100.00
2022-12-13T08:39:42.753Z,100.00
2022-12-13T08:42:18.696Z,100.00
2022-12-13T08:44:49.745Z,100.00
2022-12-13T08:47:24.532Z,100.00
2022-12-13T08:50:02.284Z,100.00
2022-12-13T08:52:39.602Z,100.00
2022-12-13T08:55:10.971Z,100.00
2022-12-13T08:57:40.580Z,100.00
2022-12-13T09:00:13.232Z,100.00
2022-12-13T09:02:43.420Z,100.00
2022-12-13T09:05:33.949Z,100.00
2022-12-13T09:08:04.304Z,100.00
2022-12-13T09:10:59.377Z,100.00
2022-12-13T09:13:31.086Z,100.00
2022-12-13T09:16:04.975Z,100.00
2022-12-13T09:18:43.979Z,100.00
2022-12-13T09:21:22.476Z,100.00
2022-12-13T09:24:01.583Z,100.00
2022-12-13T09:26:37.826Z,100.00
2022-12-13T09:29:11.242Z,100.00
2022-12-13T09:31:41.132Z,100.00
2022-12-13T09:34:11.215Z,99.47
2022-12-13T09:36:40.288Z,98.59
2022-12-13T09:39:09.149Z,97.57
2022-12-13T09:41:43.468Z,97.94
2022-12-13T09:44:30.541Z,97.83
2022-12-13T09:47:04.033Z,100.00
2022-12-13T09:49:52.232Z,98.69
2022-12-13T09:52:25.776Z,95.36
2022-12-13T09:54:58.100Z,93.01
2022-12-13T09:57:32.095Z,94.46
2022-12-13T10:00:06.968Z,96.35
2022-12-13T10:02:46.453Z,94.10
2022-12-13T10:05:35.702Z,94.04
2022-12-13T10:08:15.076Z,92.33
2022-12-13T10:10:45.017Z,93.72
2022-12-13T10:13:22.445Z,90.99
2022-12-13T10:16:02.328Z,89.95
2022-12-13T10:18:38.020Z,90.57
2022-12-13T10:21:14.701Z,90.09
2022-12-13T10:24:22.836Z,90.99
2022-12-13T10:26:38.094Z,86.54
2022-12-13T10:29:08.310Z,86.99
2022-12-13T10:31:43.787Z,89.21
2022-12-13T10:34:26.354Z,84.85
2022-12-13T10:36:59.724Z,84.76
2022-12-13T10:39:42.839Z,85.08
2022-12-13T10:42:22.636Z,86.52
2022-12-13T10:45:16.083Z,85.67
2022-12-13T10:47:53.623Z,86.00
2022-12-13T10:50:27.954Z,82.82
2022-12-13T10:53:01.265Z,84.44
2022-12-13T10:55:34.582Z,85.79
2022-12-13T10:58:09.397Z,86.81
2022-12-13T11:00:42.976Z,85.05
2022-12-13T11:03:28.811Z,83.54
2022-12-13T11:06:06.064Z,82.74
2022-12-13T11:08:36.895Z,84.18
2022-12-13T11:11:08.674Z,84.46
2022-12-13T11:13:40.997Z,81.14
2022-12-13T11:16:28.053Z,81.73
2022-12-13T11:19:01.022Z,83.54
2022-12-13T11:21:33.573Z,83.96
2022-12-13T11:24:08.834Z,80.95
2022-12-13T11:26:42.914Z,80.91
2022-12-13T11:29:57.310Z,82.24
2022-12-13T11:33:01.507Z,83.68
2022-12-13T11:35:40.850Z,84.04
2022-12-13T11:38:27.696Z,85.09
2022-12-13T11:41:11.114Z,85.33
2022-12-13T11:43:47.893Z,85.53
2022-12-13T11:46:23.522Z,83.74
2022-12-13T11:49:00.096Z,83.09
2022-12-13T11:51:38.281Z,83.81
2022-12-13T11:54:14.350Z,81.90
2022-12-13T11:57:00.056Z,82.07
2022-12-13T11:59:40.739Z,82.64
2022-12-13T12:02:21.420Z,83.33
2022-12-13T12:05:00.063Z,84.48
2022-12-13T12:07:58.460Z,83.99
2022-12-13T12:10:37.545Z,83.55
2022-12-13T12:13:17.038Z,84.60
2022-12-13T12:15:57.719Z,84.79
2022-12-13T12:18:26.602Z,85.67
2022-12-13T12:21:17.550Z,85.91
2022-12-13T12:24:08.594Z,86.12
2022-12-13T12:26:51.207Z,86.60
2022-12-13T12:29:55.971Z,86.78
2022-12-13T12:32:42.345Z,85.77
2022-12-13T12:35:50.966Z,85.34
2022-12-13T12:38:47.711Z,85.08
2022-12-13T12:41:34.928Z,86.75
2022-12-13T12:44:22.247Z,87.45
2022-12-13T12:47:49.062Z,87.58
2022-12-13T12:50:27.293Z,87.65
2022-12-13T12:53:10.706Z,87.16
2022-12-13T12:55:55.467Z,87.51
2022-12-13T12:58:34.877Z,86.48
2022-12-13T13:01:27.662Z,87.53
2022-12-13T13:04:04.169Z,88.14
2022-12-13T13:06:41.474Z,89.27
2022-12-13T13:09:12.604Z,89.12
2022-12-13T13:11:46.230Z,89.16
2022-12-13T13:14:34.065Z,88.84
2022-12-13T13:17:41.866Z,88.76
2022-12-13T13:20:24.341Z,88.79
2022-12-13T13:23:25.270Z,88.98
2022-12-13T13:28:44.825Z,91.32
2022-12-13T13:31:13.530Z,91.45
2022-12-13T13:33:47.684Z,91.69
2022-12-13T13:40:30.655Z,93.64
2022-12-13T13:43:17.417Z,93.87
2022-12-13T13:46:00.532Z,94.30
2022-12-13T13:48:54.700Z,94.38
2022-12-13T13:52:24.460Z,94.86
2022-12-13T13:55:44.875Z,95.63
2022-12-13T13:58:56.689Z,96.03
2022-12-13T14:02:08.221Z,96.68
2022-12-13T14:05:43.216Z,96.64
2022-12-13T14:08:33.704Z,96.71
2022-12-13T14:11:54.556Z,97.05
2022-12-13T14:15:07.050Z,96.66
2022-12-13T14:18:21.320Z,97.55
2022-12-13T14:21:52.758Z,97.79
2022-12-13T14:24:39.795Z,98.83
2022-12-13T14:27:36.032Z,99.56
2022-12-13T14:30:27.089Z,99.49
2022-12-13T14:32:54.065Z,99.99
2022-12-13T14:35:27.465Z,100.00
2022-12-13T14:38:05.983Z,99.50
2022-12-13T14:40:36.680Z,99.74
2022-12-13T14:43:07.504Z,100.00
2022-12-13T14:45:38.832Z,100.00
2022-12-13T14:48:28.887Z,100.00
2022-12-13T14:50:58.640Z,100.00
2022-12-13T14:53:30.656Z,100.00
2022-12-13T14:56:09.591Z,100.00
2022-12-13T14:58:43.132Z,100.00
2022-12-13T15:01:29.591Z,100.00
2022-12-13T15:04:24.616Z,100.00
2022-12-13T15:07:03.969Z,100.00
2022-12-13T15:09:36.906Z,100.00
2022-12-13T15:12:23.731Z,100.00
2022-12-13T15:15:02.472Z,100.00
2022-12-13T15:17:36.249Z,100.00
2022-12-13T15:20:28.990Z,100.00
2022-12-13T15:23:06.219Z,100.00
2022-12-13T15:25:40.110Z,100.00
2022-12-13T15:28:21.698Z,100.00
2022-12-13T15:30:55.288Z,100.00
2022-12-13T15:33:33.163Z,100.00
2022-12-13T15:36:12.173Z,100.00
2022-12-13T15:38:49.986Z,100.00
2022-12-13T15:41:20.969Z,100.00
2022-12-13T15:43:54.350Z,100.00
2022-12-13T15:46:29.570Z,100.00
2022-12-13T15:49:01.048Z,100.00
2022-12-13T15:51:31.681Z,100.00
2022-12-13T15:54:20.142Z,100.00
2022-12-13T15:57:04.550Z,100.00
2022-12-13T15:59:36.734Z,100.00
2022-12-13T16:02:20.438Z,100.00
2022-12-13T16:04:50.407Z,100.00
2022-12-13T16:07:26.634Z,100.00
2022-12-13T16:09:56.858Z,100.00
2022-12-13T16:12:37.510Z,100.00
2022-12-13T16:15:28.459Z,100.00
2022-12-13T16:18:13.553Z,100.00
2022-12-13T16:20:44.027Z,100.00
2022-12-13T16:23:26.756Z,100.00
2022-12-13T16:25:56.447Z,100.00
2022-12-13T16:28:27.897Z,100.00
2022-12-13T16:31:10.693Z,100.00
2022-12-13T16:33:40.842Z,100.00
2022-12-13T16:36:11.433Z,100.00
2022-12-13T16:38:40.454Z,100.00
2022-12-13T16:41:09.969Z,100.00
2022-12-13T16:43:54.983Z,100.00
2022-12-13T16:47:12.088Z,100.00
2022-12-13T16:49:23.089Z,100.00
2022-12-13T16:51:52.496Z,100.00
2022-12-13T16:54:22.879Z,100.00
2022-12-13T16:56:52.777Z,100.00
2022-12-13T16:59:24.872Z,100.00
2022-12-13T17:01:54.937Z,100.00
2022-12-13T17:04:27.212Z,100.00
2022-12-13T17:06:56.548Z,100.00
2022-12-13T17:09:26.091Z,100.00
2022-12-13T17:11:54.922Z,100.00
2022-12-13T17:14:24.156Z,100.00
2022-12-13T17:16:53.089Z,100.00
2022-12-13T17:19:22.350Z,100.00
2022-12-13T17:21:52.746Z,100.00
2022-12-13T17:24:21.520Z,100.00
2022-12-13T17:26:54.526Z,100.00
2022-12-13T17:29:25.004Z,100.00
2022-12-13T17:31:54.271Z,100.00
2022-12-13T17:34:22.949Z,100.00
2022-12-13T17:36:55.229Z,100.00
2022-12-13T17:39:26.611Z,100.00
2022-12-13T17:41:59.003Z,100.00
2022-12-13T17:44:28.333Z,100.00
2022-12-13T17:46:59.630Z,100.00
2022-12-13T17:49:28.706Z,100.00
2022-12-13T17:51:59.293Z,100.00
2022-12-13T17:54:37.778Z,100.00
2022-12-13T17:57:11.865Z,100.00
2022-12-13T17:59:43.027Z,100.00
2022-12-13T18:02:14.209Z,100.00
2022-12-13T18:04:43.249Z,100.00
2022-12-13T18:07:13.500Z,100.00
2022-12-13T18:09:42.832Z,100.00
2022-12-13T18:12:12.505Z,100.00
2022-12-13T18:14:41.391Z,100.00
2022-12-13T18:17:10.067Z,100.00
2022-12-13T18:19:38.898Z,100.00
2022-12-13T18:22:07.763Z,100.00
2022-12-13T18:24:38.489Z,100.00
2022-12-13T18:27:07.226Z,100.00
2022-12-13T18:29:35.963Z,100.00
2022-12-13T18:32:04.771Z,100.00
2022-12-13T18:34:33.385Z,100.00
2022-12-13T18:37:02.634Z,100.00
2022-12-13T18:39:31.554Z,100.00
2022-12-13T18:42:01.765Z,100.00
2022-12-13T18:44:34.091Z,100.00
2022-12-13T18:47:02.746Z,100.00
2022-12-13T18:49:31.326Z,100.00
2022-12-13T18:52:00.686Z,100.00
2022-12-13T18:54:30.808Z,100.00
2022-12-13T18:57:01.233Z,100.00
2022-12-13T18:59:33.249Z,100.00
2022-12-13T19:02:01.962Z,100.00
2022-12-13T19:04:30.635Z,100.00
2022-12-13T19:06:59.252Z,100.00
2022-12-13T19:09:29.783Z,100.00
2022-12-13T19:11:58.804Z,100.00
2022-12-13T19:14:28.973Z,100.00
2022-12-13T19:16:57.617Z,100.00
2022-12-13T19:19:26.297Z,100.00
2022-12-13T19:21:55.776Z,100.00
2022-12-13T19:24:24.390Z,100.00
2022-12-13T19:26:53.881Z,100.00
2022-12-13T19:29:22.516Z,100.00
2022-12-13T19:31:52.615Z,100.00
2022-12-13T19:34:21.374Z,100.00
2022-12-13T19:36:51.440Z,100.00
2022-12-13T19:39:20.464Z,100.00
2022-12-13T19:41:50.246Z,100.00
2022-12-13T19:44:20.209Z,100.00
2022-12-13T19:46:49.450Z,100.00
2022-12-13T19:49:19.800Z,100.00
2022-12-13T19:51:49.382Z,100.00
2022-12-13T19:54:18.203Z,100.00
2022-12-13T19:56:47.304Z,100.00
2022-12-13T19:59:16.197Z,100.00
2022-12-13T20:01:46.174Z,100.00
2022-12-13T20:04:15.286Z,100.00
2022-12-13T20:06:46.223Z,100.00
2022-12-13T20:09:16.423Z,100.00
2022-12-13T20:11:45.287Z,100.00
2022-12-13T20:14:15.909Z,100.00
2022-12-13T20:16:49.269Z,100.00
2022-12-13T20:19:22.064Z,100.00
2022-12-13T20:21:56.723Z,100.00
2022-12-13T20:24:27.347Z,100.00
2022-12-13T20:26:56.113Z,100.00
2022-12-13T20:29:25.232Z,100.00
2022-12-13T20:31:54.386Z,100.00
2022-12-13T20:34:23.797Z,100.00
2022-12-13T20:36:54.004Z,100.00
2022-12-13T20:39:23.187Z,100.00
2022-12-13T20:41:52.188Z,100.00
2022-12-13T20:44:21.216Z,100.00
2022-12-13T20:46:50.209Z,100.00
2022-12-13T20:49:19.229Z,100.00
2022-12-13T20:51:48.020Z,100.00
2022-12-13T20:54:18.190Z,100.00
2022-12-13T20:56:46.688Z,100.00
2022-12-13T20:59:15.469Z,100.00
2022-12-13T21:01:48.870Z,100.00
2022-12-13T21:04:18.838Z,100.00
2022-12-13T21:06:47.146Z,100.00
2022-12-13T21:09:18.089Z,100.00
2022-12-13T21:11:51.069Z,100.00
2022-12-13T21:14:23.562Z,100.00
2022-12-13T21:16:55.435Z,100.00
2022-12-13T21:19:26.555Z,100.00
2022-12-13T21:21:57.042Z,100.00
2022-12-13T21:24:29.466Z,100.00
2022-12-13T21:26:58.267Z,100.00
2022-12-13T21:29:26.704Z,100.00
2022-12-13T21:31:56.155Z,100.00
2022-12-13T21:34:25.073Z,100.00
2022-12-13T21:36:53.953Z,100.00
2022-12-13T21:39:24.749Z,100.00
2022-12-13T21:41:54.870Z,100.00
2022-12-13T21:44:23.532Z,100.00
2022-12-13T21:47:11.857Z,100.00
2022-12-13T21:49:41.352Z,100.00
2022-12-13T21:52:09.940Z,100.00
2022-12-13T21:54:38.619Z,100.00
2022-12-13T21:57:35.361Z,100.00
2022-12-13T22:00:05.096Z,100.00
2022-12-13T22:02:41.587Z,100.00
2022-12-13T22:05:11.884Z,100.00
2022-12-13T22:07:40.541Z,100.00
2022-12-13T22:10:09.874Z,100.00
2022-12-13T22:12:41.976Z,100.00
2022-12-13T22:15:14.200Z,100.00
2022-12-13T22:17:43.471Z,100.00
2022-12-13T22:20:15.531Z,100.00
2022-12-13T22:22:45.308Z,100.00
2022-12-13T22:25:13.952Z,100.00
2022-12-13T22:27:43.931Z,100.00
2022-12-13T22:30:12.993Z,100.00
2022-12-13T22:32:42.347Z,100.00
2022-12-13T22:35:11.875Z,100.00
2022-12-13T22:37:40.454Z,100.00
2022-12-13T22:40:10.655Z,100.00
2022-12-13T22:42:39.358Z,100.00
2022-12-13T22:45:10.277Z,100.00
2022-12-13T22:47:38.905Z,100.00
2022-12-13T22:50:08.744Z,100.00
2022-12-13T22:52:37.274Z,100.00
2022-12-13T22:55:06.503Z,100.00
2022-12-13T22:57:34.799Z,100.00
2022-12-13T23:00:03.240Z,100.00
2022-12-13T23:02:32.977Z,100.00
2022-12-13T23:05:01.278Z,100.00
2022-12-13T23:07:29.708Z,100.00
2022-12-13T23:09:58.119Z,100.00
2022-12-13T23:12:43.940Z,100.00
2022-12-13T23:15:12.355Z,100.00
2022-12-13T23:17:42.013Z,100.00
2022-12-13T23:20:12.928Z,100.00
2022-12-13T23:22:41.306Z,100.00
2022-12-13T23:25:10.503Z,100.00
2022-12-13T23:27:38.847Z,100.00
2022-12-13T23:30:08.568Z,100.00
2022-12-13T23:32:36.910Z,100.00
2022-12-13T23:35:09.167Z,100.00
2022-12-13T23:37:38.186Z,100.00
2022-12-13T23:40:08.605Z,100.00
2022-12-13T23:42:36.946Z,100.00
2022-12-13T23:45:06.254Z,100.00
2022-12-13T23:47:34.630Z,100.00
2022-12-13T23:50:02.893Z,100.00
2022-12-13T23:52:32.641Z,100.00
2022-12-13T23:55:00.972Z,100.00
2022-12-13T23:57:29.561Z,100.00
2022-12-13T23:59:57.867Z,100.00
